sensor_id;sensor_type;location;lat;lon;timestamp;temperature;humidity
10472;DHT22;5283;48.876;8.962;2023-04-03T00:00:38;3.70;99.90
10472;DHT22;5283;48.876;8.962;2023-04-03T00:03:04;3.70;99.90
10472;DHT22;5283;48.876;8.962;2023-04-03T00:05:31;3.70;99.90
10472;DHT22;5283;48.876;8.962;2023-04-03T00:07:58;3.60;99.90
10472;DHT22;5283;48.876;8.962;2023-04-03T00:10:25;3.60;99.90
10472;DHT22;5283;48.876;8.962;2023-04-03T00:12:51;3.60;99.90
10472;DHT22;5283;48.876;8.962;2023-04-03T00:15:18;3.60;99.90
10472;DHT22;5283;48.876;8.962;2023-04-03T00:17:45;3.60;99.90
10472;DHT22;5283;48.876;8.962;2023-04-03T00:20:12;3.60;99.90
10472;DHT22;5283;48.876;8.962;2023-04-03T00:22:39;3.50;99.90
10472;DHT22;5283;48.876;8.962;2023-04-03T00:25:06;3.50;99.90
10472;DHT22;5283;48.876;8.962;2023-04-03T00:27:35;3.50;99.90
10472;DHT22;5283;48.876;8.962;2023-04-03T00:30:02;3.50;99.90
10472;DHT22;5283;48.876;8.962;2023-04-03T00:32:29;3.50;99.90
10472;DHT22;5283;48.876;8.962;2023-04-03T00:34:55;3.40;99.90
10472;DHT22;5283;48.876;8.962;2023-04-03T00:37:22;3.40;99.90
10472;DHT22;5283;48.876;8.962;2023-04-03T00:39:49;3.30;99.90
10472;DHT22;5283;48.876;8.962;2023-04-03T00:42:16;3.30;99.90
10472;DHT22;5283;48.876;8.962;2023-04-03T00:47:12;3.30;99.90
10472;DHT22;5283;48.876;8.962;2023-04-03T00:49:39;3.30;99.90
10472;DHT22;5283;48.876;8.962;2023-04-03T00:52:11;3.30;99.90
10472;DHT22;5283;48.876;8.962;2023-04-03T00:54:41;3.30;99.90
10472;DHT22;5283;48.876;8.962;2023-04-03T00:57:08;3.20;99.90
10472;DHT22;5283;48.876;8.962;2023-04-03T00:59:39;3.20;99.90
10472;DHT22;5283;48.876;8.962;2023-04-03T01:02:08;3.20;99.90
10472;DHT22;5283;48.876;8.962;2023-04-03T01:04:40;3.20;99.90
10472;DHT22;5283;48.876;8.962;2023-04-03T01:07:20;3.10;99.90
10472;DHT22;5283;48.876;8.962;2023-04-03T01:09:51;3.00;99.90
10472;DHT22;5283;48.876;8.962;2023-04-03T01:15:03;2.60;99.90
10472;DHT22;5283;48.876;8.962;2023-04-03T01:17:41;2.50;99.90
10472;DHT22;5283;48.876;8.962;2023-04-03T01:20:31;2.40;99.90
10472;DHT22;5283;48.876;8.962;2023-04-03T01:28:07;2.10;99.90
10472;DHT22;5283;48.876;8.962;2023-04-03T01:30:44;2.00;99.90
10472;DHT22;5283;48.876;8.962;2023-04-03T01:33:11;1.90;99.90
10472;DHT22;5283;48.876;8.962;2023-04-03T01:35:38;1.80;99.90
10472;DHT22;5283;48.876;8.962;2023-04-03T01:38:05;1.70;99.90
10472;DHT22;5283;48.876;8.962;2023-04-03T01:40:33;1.60;99.90
10472;DHT22;5283;48.876;8.962;2023-04-03T01:43:00;1.60;99.90
10472;DHT22;5283;48.876;8.962;2023-04-03T01:45:26;1.60;99.90
10472;DHT22;5283;48.876;8.962;2023-04-03T01:47:53;1.60;99.90
10472;DHT22;5283;48.876;8.962;2023-04-03T01:50:20;1.60;99.90
10472;DHT22;5283;48.876;8.962;2023-04-03T01:52:47;1.60;99.90
10472;DHT22;5283;48.876;8.962;2023-04-03T01:55:14;1.70;99.90
10472;DHT22;5283;48.876;8.962;2023-04-03T01:57:41;1.60;99.90
10472;DHT22;5283;48.876;8.962;2023-04-03T02:00:08;1.60;99.90
10472;DHT22;5283;48.876;8.962;2023-04-03T02:02:35;1.50;99.90
10472;DHT22;5283;48.876;8.962;2023-04-03T02:05:02;1.50;99.90
10472;DHT22;5283;48.876;8.962;2023-04-03T02:07:29;1.50;99.90
10472;DHT22;5283;48.876;8.962;2023-04-03T02:09:56;1.50;99.90
10472;DHT22;5283;48.876;8.962;2023-04-03T02:12:22;1.60;99.90
10472;DHT22;5283;48.876;8.962;2023-04-03T02:14:49;1.60;99.90
10472;DHT22;5283;48.876;8.962;2023-04-03T02:17:16;1.60;99.90
10472;DHT22;5283;48.876;8.962;2023-04-03T02:19:42;1.60;99.90
10472;DHT22;5283;48.876;8.962;2023-04-03T02:22:09;1.60;99.90
10472;DHT22;5283;48.876;8.962;2023-04-03T02:24:36;1.70;99.90
10472;DHT22;5283;48.876;8.962;2023-04-03T02:27:05;1.70;99.90
10472;DHT22;5283;48.876;8.962;2023-04-03T02:29:32;1.70;99.90
10472;DHT22;5283;48.876;8.962;2023-04-03T02:31:58;1.80;99.90
10472;DHT22;5283;48.876;8.962;2023-04-03T02:34:25;1.80;99.90
10472;DHT22;5283;48.876;8.962;2023-04-03T02:36:52;1.80;99.90
10472;DHT22;5283;48.876;8.962;2023-04-03T02:39:19;1.90;99.90
10472;DHT22;5283;48.876;8.962;2023-04-03T02:41:45;2.10;99.90
10472;DHT22;5283;48.876;8.962;2023-04-03T02:44:12;2.20;99.90
10472;DHT22;5283;48.876;8.962;2023-04-03T02:46:39;2.20;99.90
10472;DHT22;5283;48.876;8.962;2023-04-03T02:49:06;2.30;99.90
10472;DHT22;5283;48.876;8.962;2023-04-03T02:51:33;2.40;99.90
10472;DHT22;5283;48.876;8.962;2023-04-03T02:53:59;2.40;99.90
10472;DHT22;5283;48.876;8.962;2023-04-03T02:56:26;2.50;99.90
10472;DHT22;5283;48.876;8.962;2023-04-03T02:58:53;2.60;99.90
10472;DHT22;5283;48.876;8.962;2023-04-03T03:01:20;2.60;99.90
10472;DHT22;5283;48.876;8.962;2023-04-03T03:03:46;2.60;99.90
10472;DHT22;5283;48.876;8.962;2023-04-03T03:06:15;2.60;99.90
10472;DHT22;5283;48.876;8.962;2023-04-03T03:08:43;2.70;99.90
10472;DHT22;5283;48.876;8.962;2023-04-03T03:11:10;2.70;99.90
10472;DHT22;5283;48.876;8.962;2023-04-03T03:13:37;2.80;99.90
10472;DHT22;5283;48.876;8.962;2023-04-03T03:16:04;2.90;99.90
10472;DHT22;5283;48.876;8.962;2023-04-03T03:18:31;2.90;99.90
10472;DHT22;5283;48.876;8.962;2023-04-03T03:20:59;2.90;99.90
10472;DHT22;5283;48.876;8.962;2023-04-03T03:23:28;2.90;99.90
10472;DHT22;5283;48.876;8.962;2023-04-03T03:26:01;2.90;99.90
10472;DHT22;5283;48.876;8.962;2023-04-03T03:28:28;2.90;99.90
10472;DHT22;5283;48.876;8.962;2023-04-03T03:30:55;2.90;99.90
10472;DHT22;5283;48.876;8.962;2023-04-03T03:33:22;3.00;99.90
10472;DHT22;5283;48.876;8.962;2023-04-03T03:35:48;3.00;99.90
10472;DHT22;5283;48.876;8.962;2023-04-03T03:38:16;3.00;99.90
10472;DHT22;5283;48.876;8.962;2023-04-03T03:40:42;3.10;99.90
10472;DHT22;5283;48.876;8.962;2023-04-03T03:43:09;3.10;99.90
10472;DHT22;5283;48.876;8.962;2023-04-03T03:45:36;3.10;99.90
10472;DHT22;5283;48.876;8.962;2023-04-03T03:48:03;3.10;99.90
10472;DHT22;5283;48.876;8.962;2023-04-03T03:50:30;3.10;99.90
10472;DHT22;5283;48.876;8.962;2023-04-03T03:52:56;3.10;99.90
10472;DHT22;5283;48.876;8.962;2023-04-03T03:55:23;3.20;99.90
10472;DHT22;5283;48.876;8.962;2023-04-03T03:57:50;3.20;99.90
10472;DHT22;5283;48.876;8.962;2023-04-03T04:00:17;3.20;99.90
10472;DHT22;5283;48.876;8.962;2023-04-03T04:02:44;3.20;99.90
10472;DHT22;5283;48.876;8.962;2023-04-03T04:05:11;3.20;99.90
10472;DHT22;5283;48.876;8.962;2023-04-03T04:07:37;3.20;99.90
10472;DHT22;5283;48.876;8.962;2023-04-03T04:10:05;3.20;99.90
10472;DHT22;5283;48.876;8.962;2023-04-03T04:12:31;3.20;99.90
10472;DHT22;5283;48.876;8.962;2023-04-03T04:14:58;3.20;99.90
10472;DHT22;5283;48.876;8.962;2023-04-03T04:17:25;3.20;99.90
10472;DHT22;5283;48.876;8.962;2023-04-03T04:19:51;3.20;99.90
10472;DHT22;5283;48.876;8.962;2023-04-03T04:22:18;3.20;99.90
10472;DHT22;5283;48.876;8.962;2023-04-03T04:24:45;3.20;99.90
10472;DHT22;5283;48.876;8.962;2023-04-03T04:27:11;3.20;99.90
10472;DHT22;5283;48.876;8.962;2023-04-03T04:29:38;3.20;99.90
10472;DHT22;5283;48.876;8.962;2023-04-03T04:32:05;3.20;99.90
10472;DHT22;5283;48.876;8.962;2023-04-03T04:34:31;3.20;99.90
10472;DHT22;5283;48.876;8.962;2023-04-03T04:36:58;3.30;99.90
10472;DHT22;5283;48.876;8.962;2023-04-03T04:39:25;3.30;99.90
10472;DHT22;5283;48.876;8.962;2023-04-03T04:41:51;3.30;99.90
10472;DHT22;5283;48.876;8.962;2023-04-03T04:44:18;3.30;99.90
10472;DHT22;5283;48.876;8.962;2023-04-03T04:46:46;3.30;99.90
10472;DHT22;5283;48.876;8.962;2023-04-03T04:49:13;3.30;99.90
10472;DHT22;5283;48.876;8.962;2023-04-03T04:51:39;3.30;99.90
10472;DHT22;5283;48.876;8.962;2023-04-03T04:54:10;3.20;99.90
10472;DHT22;5283;48.876;8.962;2023-04-03T04:56:37;3.20;99.90
10472;DHT22;5283;48.876;8.962;2023-04-03T04:59:03;3.10;99.90
10472;DHT22;5283;48.876;8.962;2023-04-03T05:01:30;3.10;99.90
10472;DHT22;5283;48.876;8.962;2023-04-03T05:03:57;3.00;99.90
10472;DHT22;5283;48.876;8.962;2023-04-03T05:06:23;3.10;99.90
10472;DHT22;5283;48.876;8.962;2023-04-03T05:08:50;3.20;99.90
10472;DHT22;5283;48.876;8.962;2023-04-03T05:11:16;3.20;99.90
10472;DHT22;5283;48.876;8.962;2023-04-03T05:13:43;3.30;99.90
10472;DHT22;5283;48.876;8.962;2023-04-03T05:16:10;3.30;99.90
10472;DHT22;5283;48.876;8.962;2023-04-03T05:18:37;3.30;99.90
10472;DHT22;5283;48.876;8.962;2023-04-03T05:21:04;3.30;99.90
10472;DHT22;5283;48.876;8.962;2023-04-03T05:23:31;3.30;99.90
10472;DHT22;5283;48.876;8.962;2023-04-03T05:25:58;3.20;99.90
10472;DHT22;5283;48.876;8.962;2023-04-03T05:28:24;3.20;99.90
10472;DHT22;5283;48.876;8.962;2023-04-03T05:30:55;3.10;99.90
10472;DHT22;5283;48.876;8.962;2023-04-03T05:33:23;3.10;99.90
10472;DHT22;5283;48.876;8.962;2023-04-03T05:35:50;3.10;99.90
10472;DHT22;5283;48.876;8.962;2023-04-03T05:38:16;3.10;99.90
10472;DHT22;5283;48.876;8.962;2023-04-03T05:40:43;3.10;99.90
10472;DHT22;5283;48.876;8.962;2023-04-03T05:43:10;3.10;99.90
10472;DHT22;5283;48.876;8.962;2023-04-03T05:45:37;3.10;99.90
10472;DHT22;5283;48.876;8.962;2023-04-03T05:48:03;3.10;99.90
10472;DHT22;5283;48.876;8.962;2023-04-03T05:50:30;3.20;99.90
10472;DHT22;5283;48.876;8.962;2023-04-03T05:52:59;3.20;99.90
10472;DHT22;5283;48.876;8.962;2023-04-03T05:55:26;3.20;99.90
10472;DHT22;5283;48.876;8.962;2023-04-03T05:57:52;3.20;99.90
10472;DHT22;5283;48.876;8.962;2023-04-03T06:00:20;3.20;99.90
10472;DHT22;5283;48.876;8.962;2023-04-03T06:02:47;3.20;99.90
10472;DHT22;5283;48.876;8.962;2023-04-03T06:05:14;3.20;99.90
10472;DHT22;5283;48.876;8.962;2023-04-03T06:07:41;3.30;99.90
10472;DHT22;5283;48.876;8.962;2023-04-03T06:10:08;3.40;99.90
10472;DHT22;5283;48.876;8.962;2023-04-03T06:12:35;3.40;99.90
10472;DHT22;5283;48.876;8.962;2023-04-03T06:15:02;3.40;99.90
10472;DHT22;5283;48.876;8.962;2023-04-03T06:17:30;3.50;99.90
10472;DHT22;5283;48.876;8.962;2023-04-03T06:19:56;3.50;99.90
10472;DHT22;5283;48.876;8.962;2023-04-03T06:22:24;3.50;99.90
10472;DHT22;5283;48.876;8.962;2023-04-03T06:24:52;3.40;99.90
10472;DHT22;5283;48.876;8.962;2023-04-03T06:27:18;3.50;99.90
10472;DHT22;5283;48.876;8.962;2023-04-03T06:29:45;3.50;99.90
10472;DHT22;5283;48.876;8.962;2023-04-03T06:32:12;3.50;99.90
10472;DHT22;5283;48.876;8.962;2023-04-03T06:34:38;3.50;99.90
10472;DHT22;5283;48.876;8.962;2023-04-03T06:37:06;3.50;99.90
10472;DHT22;5283;48.876;8.962;2023-04-03T06:39:33;3.50;99.90
10472;DHT22;5283;48.876;8.962;2023-04-03T06:41:59;3.50;99.90
10472;DHT22;5283;48.876;8.962;2023-04-03T06:44:26;3.60;99.90
10472;DHT22;5283;48.876;8.962;2023-04-03T06:46:53;3.60;99.90
10472;DHT22;5283;48.876;8.962;2023-04-03T06:49:20;3.60;99.90
10472;DHT22;5283;48.876;8.962;2023-04-03T06:51:47;3.60;99.90
10472;DHT22;5283;48.876;8.962;2023-04-03T06:54:14;3.80;99.90
10472;DHT22;5283;48.876;8.962;2023-04-03T06:56:41;3.90;99.90
10472;DHT22;5283;48.876;8.962;2023-04-03T06:59:09;4.10;99.90
10472;DHT22;5283;48.876;8.962;2023-04-03T07:01:36;4.20;99.90
10472;DHT22;5283;48.876;8.962;2023-04-03T07:04:02;4.20;99.90
10472;DHT22;5283;48.876;8.962;2023-04-03T07:06:29;4.20;99.90
10472;DHT22;5283;48.876;8.962;2023-04-03T07:08:57;4.10;99.90
10472;DHT22;5283;48.876;8.962;2023-04-03T07:11:24;4.10;99.90
10472;DHT22;5283;48.876;8.962;2023-04-03T07:13:50;4.10;99.90
10472;DHT22;5283;48.876;8.962;2023-04-03T07:16:17;4.10;99.90
10472;DHT22;5283;48.876;8.962;2023-04-03T07:18:45;4.30;99.90
10472;DHT22;5283;48.876;8.962;2023-04-03T07:21:13;4.30;99.90
10472;DHT22;5283;48.876;8.962;2023-04-03T07:23:40;4.30;99.90
10472;DHT22;5283;48.876;8.962;2023-04-03T07:26:07;4.40;99.90
10472;DHT22;5283;48.876;8.962;2023-04-03T07:28:34;4.40;99.90
10472;DHT22;5283;48.876;8.962;2023-04-03T07:31:06;4.50;99.90
10472;DHT22;5283;48.876;8.962;2023-04-03T07:33:35;4.60;99.90
10472;DHT22;5283;48.876;8.962;2023-04-03T07:36:02;4.70;99.90
10472;DHT22;5283;48.876;8.962;2023-04-03T07:38:29;4.80;99.90
10472;DHT22;5283;48.876;8.962;2023-04-03T07:40:56;4.80;99.90
10472;DHT22;5283;48.876;8.962;2023-04-03T07:43:23;4.80;99.90
10472;DHT22;5283;48.876;8.962;2023-04-03T07:45:51;4.80;99.90
10472;DHT22;5283;48.876;8.962;2023-04-03T07:48:20;4.80;99.90
10472;DHT22;5283;48.876;8.962;2023-04-03T07:50:47;4.70;99.90
10472;DHT22;5283;48.876;8.962;2023-04-03T07:53:14;4.80;99.90
10472;DHT22;5283;48.876;8.962;2023-04-03T07:55:41;4.90;99.90
10472;DHT22;5283;48.876;8.962;2023-04-03T07:58:13;4.90;99.90
10472;DHT22;5283;48.876;8.962;2023-04-03T08:00:41;4.90;99.90
10472;DHT22;5283;48.876;8.962;2023-04-03T08:03:10;5.00;99.90
10472;DHT22;5283;48.876;8.962;2023-04-03T08:05:41;5.20;99.90
10472;DHT22;5283;48.876;8.962;2023-04-03T08:08:10;5.30;99.90
10472;DHT22;5283;48.876;8.962;2023-04-03T08:10:37;5.60;99.90
10472;DHT22;5283;48.876;8.962;2023-04-03T08:13:07;5.70;99.90
10472;DHT22;5283;48.876;8.962;2023-04-03T08:15:35;5.70;99.90
10472;DHT22;5283;48.876;8.962;2023-04-03T08:18:02;5.70;99.90
10472;DHT22;5283;48.876;8.962;2023-04-03T08:20:29;5.90;99.90
10472;DHT22;5283;48.876;8.962;2023-04-03T08:22:56;5.80;99.90
10472;DHT22;5283;48.876;8.962;2023-04-03T08:25:22;5.60;99.90
10472;DHT22;5283;48.876;8.962;2023-04-03T08:27:49;5.50;99.90
10472;DHT22;5283;48.876;8.962;2023-04-03T08:30:16;5.60;99.90
10472;DHT22;5283;48.876;8.962;2023-04-03T08:32:43;5.50;99.90
10472;DHT22;5283;48.876;8.962;2023-04-03T08:35:11;5.50;99.90
10472;DHT22;5283;48.876;8.962;2023-04-03T08:37:39;5.60;99.90
10472;DHT22;5283;48.876;8.962;2023-04-03T08:40:10;5.70;99.90
10472;DHT22;5283;48.876;8.962;2023-04-03T08:43:05;5.70;99.90
10472;DHT22;5283;48.876;8.962;2023-04-03T08:45:55;5.50;99.90
10472;DHT22;5283;48.876;8.962;2023-04-03T08:48:27;5.50;99.90
10472;DHT22;5283;48.876;8.962;2023-04-03T08:50:59;5.60;99.90
10472;DHT22;5283;48.876;8.962;2023-04-03T08:53:30;5.60;99.90
10472;DHT22;5283;48.876;8.962;2023-04-03T08:56:04;5.60;99.90
10472;DHT22;5283;48.876;8.962;2023-04-03T08:58:42;5.80;99.90
10472;DHT22;5283;48.876;8.962;2023-04-03T09:01:35;5.90;99.90
10472;DHT22;5283;48.876;8.962;2023-04-03T09:04:09;5.90;99.90
10472;DHT22;5283;48.876;8.962;2023-04-03T09:06:38;6.00;99.90
10472;DHT22;5283;48.876;8.962;2023-04-03T09:09:13;6.10;99.90
10472;DHT22;5283;48.876;8.962;2023-04-03T09:11:47;6.00;99.90
10472;DHT22;5283;48.876;8.962;2023-04-03T09:14:36;5.80;99.90
10472;DHT22;5283;48.876;8.962;2023-04-03T09:19:57;6.00;99.90
10472;DHT22;5283;48.876;8.962;2023-04-03T09:22:31;5.90;99.90
10472;DHT22;5283;48.876;8.962;2023-04-03T09:25:18;5.80;99.90
10472;DHT22;5283;48.876;8.962;2023-04-03T09:27:46;6.00;99.90
10472;DHT22;5283;48.876;8.962;2023-04-03T09:30:25;6.00;99.90
10472;DHT22;5283;48.876;8.962;2023-04-03T09:32:55;6.00;99.90
10472;DHT22;5283;48.876;8.962;2023-04-03T09:35:27;6.10;99.90
10472;DHT22;5283;48.876;8.962;2023-04-03T09:40:44;6.20;99.90
10472;DHT22;5283;48.876;8.962;2023-04-03T09:43:37;6.40;99.90
10472;DHT22;5283;48.876;8.962;2023-04-03T09:46:31;6.30;99.90
10472;DHT22;5283;48.876;8.962;2023-04-03T09:49:01;6.10;99.90
10472;DHT22;5283;48.876;8.962;2023-04-03T09:51:33;6.10;99.90
10472;DHT22;5283;48.876;8.962;2023-04-03T09:54:00;6.10;99.90
10472;DHT22;5283;48.876;8.962;2023-04-03T09:56:28;6.10;99.90
10472;DHT22;5283;48.876;8.962;2023-04-03T10:01:29;6.20;99.90
10472;DHT22;5283;48.876;8.962;2023-04-03T10:04:16;6.20;99.90
10472;DHT22;5283;48.876;8.962;2023-04-03T10:06:53;6.10;99.90
10472;DHT22;5283;48.876;8.962;2023-04-03T10:09:26;6.10;99.90
10472;DHT22;5283;48.876;8.962;2023-04-03T10:12:12;6.20;99.90
10472;DHT22;5283;48.876;8.962;2023-04-03T10:14:55;6.40;99.90
10472;DHT22;5283;48.876;8.962;2023-04-03T10:17:48;6.50;99.90
10472;DHT22;5283;48.876;8.962;2023-04-03T10:28:40;6.50;99.90
10472;DHT22;5283;48.876;8.962;2023-04-03T10:32:01;6.30;99.90
10472;DHT22;5283;48.876;8.962;2023-04-03T10:34:21;6.10;99.90
10472;DHT22;5283;48.876;8.962;2023-04-03T10:39:42;6.00;99.90
10472;DHT22;5283;48.876;8.962;2023-04-03T10:47:48;5.90;99.90
10472;DHT22;5283;48.876;8.962;2023-04-03T10:56:42;5.90;99.90
10472;DHT22;5283;48.876;8.962;2023-04-03T10:59:17;6.10;99.90
10472;DHT22;5283;48.876;8.962;2023-04-03T11:01:49;6.40;99.90
10472;DHT22;5283;48.876;8.962;2023-04-03T11:04:19;6.60;99.90
10472;DHT22;5283;48.876;8.962;2023-04-03T11:06:56;6.70;99.90
10472;DHT22;5283;48.876;8.962;2023-04-03T11:09:28;6.70;99.90
10472;DHT22;5283;48.876;8.962;2023-04-03T11:12:05;6.70;99.90
10472;DHT22;5283;48.876;8.962;2023-04-03T11:14:36;6.60;99.90
10472;DHT22;5283;48.876;8.962;2023-04-03T11:22:34;6.20;99.90
10472;DHT22;5283;48.876;8.962;2023-04-03T11:27:48;6.20;99.90
10472;DHT22;5283;48.876;8.962;2023-04-03T11:30:22;6.20;99.90
10472;DHT22;5283;48.876;8.962;2023-04-03T11:35:49;6.40;99.90
10472;DHT22;5283;48.876;8.962;2023-04-03T11:38:23;6.50;99.90
10472;DHT22;5283;48.876;8.962;2023-04-03T11:40:50;6.60;99.90
10472;DHT22;5283;48.876;8.962;2023-04-03T11:43:23;6.80;99.90
10472;DHT22;5283;48.876;8.962;2023-04-03T11:45:56;7.10;99.90
10472;DHT22;5283;48.876;8.962;2023-04-03T11:50:55;6.90;99.90
10472;DHT22;5283;48.876;8.962;2023-04-03T11:53:32;7.00;99.90
10472;DHT22;5283;48.876;8.962;2023-04-03T11:56:46;6.90;99.90
10472;DHT22;5283;48.876;8.962;2023-04-03T12:04:17;6.60;99.90
10472;DHT22;5283;48.876;8.962;2023-04-03T12:11:56;6.50;99.90
10472;DHT22;5283;48.876;8.962;2023-04-03T12:14:24;6.80;99.90
10472;DHT22;5283;48.876;8.962;2023-04-03T12:16:53;7.00;99.90
10472;DHT22;5283;48.876;8.962;2023-04-03T12:19:31;6.90;99.90
10472;DHT22;5283;48.876;8.962;2023-04-03T12:22:06;6.80;99.90
10472;DHT22;5283;48.876;8.962;2023-04-03T12:24:36;6.60;99.90
10472;DHT22;5283;48.876;8.962;2023-04-03T12:27:27;6.40;99.90
10472;DHT22;5283;48.876;8.962;2023-04-03T12:30:05;6.40;99.90
10472;DHT22;5283;48.876;8.962;2023-04-03T12:32:48;6.50;99.90
10472;DHT22;5283;48.876;8.962;2023-04-03T12:35:37;6.60;99.90
10472;DHT22;5283;48.876;8.962;2023-04-03T12:41:19;6.80;99.90
10472;DHT22;5283;48.876;8.962;2023-04-03T12:46:47;7.20;99.90
10472;DHT22;5283;48.876;8.962;2023-04-03T12:49:26;7.20;99.90
10472;DHT22;5283;48.876;8.962;2023-04-03T12:51:56;7.20;99.90
10472;DHT22;5283;48.876;8.962;2023-04-03T12:54:36;7.30;99.90
10472;DHT22;5283;48.876;8.962;2023-04-03T12:57:26;7.20;99.90
10472;DHT22;5283;48.876;8.962;2023-04-03T12:59:54;7.10;99.90
10472;DHT22;5283;48.876;8.962;2023-04-03T13:04:58;6.90;99.90
10472;DHT22;5283;48.876;8.962;2023-04-03T13:07:29;6.90;99.90
10472;DHT22;5283;48.876;8.962;2023-04-03T13:10:23;6.70;99.90
10472;DHT22;5283;48.876;8.962;2023-04-03T13:12:57;6.70;99.90
10472;DHT22;5283;48.876;8.962;2023-04-03T13:15:43;6.80;99.90
10472;DHT22;5283;48.876;8.962;2023-04-03T13:18:41;6.90;99.90
10472;DHT22;5283;48.876;8.962;2023-04-03T13:21:15;6.90;99.90
10472;DHT22;5283;48.876;8.962;2023-04-03T13:23:46;6.80;99.90
10472;DHT22;5283;48.876;8.962;2023-04-03T13:26:17;6.80;99.90
10472;DHT22;5283;48.876;8.962;2023-04-03T13:28:45;6.70;99.90
10472;DHT22;5283;48.876;8.962;2023-04-03T13:34:03;6.90;99.90
10472;DHT22;5283;48.876;8.962;2023-04-03T13:36:38;7.00;99.90
10472;DHT22;5283;48.876;8.962;2023-04-03T13:39:29;7.10;99.90
10472;DHT22;5283;48.876;8.962;2023-04-03T13:42:22;7.10;99.90
10472;DHT22;5283;48.876;8.962;2023-04-03T13:45:08;7.30;99.90
10472;DHT22;5283;48.876;8.962;2023-04-03T13:47:40;7.50;99.90
10472;DHT22;5283;48.876;8.962;2023-04-03T13:50:24;7.60;99.90
10472;DHT22;5283;48.876;8.962;2023-04-03T13:52:55;7.50;99.90
10472;DHT22;5283;48.876;8.962;2023-04-03T13:55:32;7.30;99.90
10472;DHT22;5283;48.876;8.962;2023-04-03T13:58:16;7.30;99.90
10472;DHT22;5283;48.876;8.962;2023-04-03T14:00:53;7.30;99.90
10472;DHT22;5283;48.876;8.962;2023-04-03T14:05:58;7.30;99.90
10472;DHT22;5283;48.876;8.962;2023-04-03T14:08:25;7.20;99.90
10472;DHT22;5283;48.876;8.962;2023-04-03T14:10:58;7.20;99.90
10472;DHT22;5283;48.876;8.962;2023-04-03T14:13:24;7.10;99.90
10472;DHT22;5283;48.876;8.962;2023-04-03T14:15:51;7.10;99.90
10472;DHT22;5283;48.876;8.962;2023-04-03T14:18:19;6.90;99.90
10472;DHT22;5283;48.876;8.962;2023-04-03T14:20:48;6.90;99.90
10472;DHT22;5283;48.876;8.962;2023-04-03T14:23:14;6.80;99.90
10472;DHT22;5283;48.876;8.962;2023-04-03T14:25:42;6.90;99.90
10472;DHT22;5283;48.876;8.962;2023-04-03T14:28:21;6.90;99.90
10472;DHT22;5283;48.876;8.962;2023-04-03T14:30:50;6.90;99.90
10472;DHT22;5283;48.876;8.962;2023-04-03T14:33:20;6.80;99.90
10472;DHT22;5283;48.876;8.962;2023-04-03T14:35:48;6.80;99.90
10472;DHT22;5283;48.876;8.962;2023-04-03T14:38:22;6.80;99.90
10472;DHT22;5283;48.876;8.962;2023-04-03T14:40:49;6.80;99.90
10472;DHT22;5283;48.876;8.962;2023-04-03T14:43:16;6.80;99.90
10472;DHT22;5283;48.876;8.962;2023-04-03T14:45:44;6.90;99.90
10472;DHT22;5283;48.876;8.962;2023-04-03T14:48:21;7.00;99.90
10472;DHT22;5283;48.876;8.962;2023-04-03T14:50:50;7.00;99.90
10472;DHT22;5283;48.876;8.962;2023-04-03T14:53:24;7.10;99.90
10472;DHT22;5283;48.876;8.962;2023-04-03T14:55:58;7.10;99.90
10472;DHT22;5283;48.876;8.962;2023-04-03T14:58:24;6.90;99.90
10472;DHT22;5283;48.876;8.962;2023-04-03T15:00:51;6.80;99.90
10472;DHT22;5283;48.876;8.962;2023-04-03T15:03:20;6.80;99.90
10472;DHT22;5283;48.876;8.962;2023-04-03T15:05:48;6.80;99.90
10472;DHT22;5283;48.876;8.962;2023-04-03T15:08:21;6.70;99.90
10472;DHT22;5283;48.876;8.962;2023-04-03T15:10:50;6.80;99.90
10472;DHT22;5283;48.876;8.962;2023-04-03T15:13:19;6.80;99.90
10472;DHT22;5283;48.876;8.962;2023-04-03T15:15:47;6.90;99.90
10472;DHT22;5283;48.876;8.962;2023-04-03T15:18:18;7.00;99.90
10472;DHT22;5283;48.876;8.962;2023-04-03T15:20:46;7.00;99.90
10472;DHT22;5283;48.876;8.962;2023-04-03T15:23:15;6.90;99.90
10472;DHT22;5283;48.876;8.962;2023-04-03T15:25:43;6.90;99.90
10472;DHT22;5283;48.876;8.962;2023-04-03T15:28:26;6.70;99.90
10472;DHT22;5283;48.876;8.962;2023-04-03T15:30:54;6.50;99.90
10472;DHT22;5283;48.876;8.962;2023-04-03T15:33:21;6.50;99.90
10472;DHT22;5283;48.876;8.962;2023-04-03T15:35:48;6.50;99.90
10472;DHT22;5283;48.876;8.962;2023-04-03T15:38:15;6.60;99.90
10472;DHT22;5283;48.876;8.962;2023-04-03T15:40:41;6.70;99.90
10472;DHT22;5283;48.876;8.962;2023-04-03T15:43:10;6.90;99.90
10472;DHT22;5283;48.876;8.962;2023-04-03T15:45:37;7.00;99.90
10472;DHT22;5283;48.876;8.962;2023-04-03T15:48:05;7.10;99.90
10472;DHT22;5283;48.876;8.962;2023-04-03T15:50:33;7.00;99.90
10472;DHT22;5283;48.876;8.962;2023-04-03T15:53:01;7.10;99.90
10472;DHT22;5283;48.876;8.962;2023-04-03T15:55:31;7.00;99.90
10472;DHT22;5283;48.876;8.962;2023-04-03T15:57:58;7.00;99.90
10472;DHT22;5283;48.876;8.962;2023-04-03T16:00:25;7.00;99.90
10472;DHT22;5283;48.876;8.962;2023-04-03T16:02:55;7.00;99.90
10472;DHT22;5283;48.876;8.962;2023-04-03T16:05:24;6.90;99.90
10472;DHT22;5283;48.876;8.962;2023-04-03T16:07:51;6.80;99.90
10472;DHT22;5283;48.876;8.962;2023-04-03T16:10:18;6.70;99.90
10472;DHT22;5283;48.876;8.962;2023-04-03T16:12:45;6.60;99.90
10472;DHT22;5283;48.876;8.962;2023-04-03T16:15:12;6.50;99.90
10472;DHT22;5283;48.876;8.962;2023-04-03T16:17:39;6.30;99.90
10472;DHT22;5283;48.876;8.962;2023-04-03T16:20:09;6.40;99.90
10472;DHT22;5283;48.876;8.962;2023-04-03T16:22:37;6.40;99.90
10472;DHT22;5283;48.876;8.962;2023-04-03T16:25:06;6.60;99.90
10472;DHT22;5283;48.876;8.962;2023-04-03T16:27:33;6.70;99.90
10472;DHT22;5283;48.876;8.962;2023-04-03T16:30:00;6.70;99.90
10472;DHT22;5283;48.876;8.962;2023-04-03T16:32:29;6.70;99.90
10472;DHT22;5283;48.876;8.962;2023-04-03T16:34:57;6.70;99.90
10472;DHT22;5283;48.876;8.962;2023-04-03T16:37:24;6.70;99.90
10472;DHT22;5283;48.876;8.962;2023-04-03T16:39:52;6.60;99.90
10472;DHT22;5283;48.876;8.962;2023-04-03T16:42:18;6.60;99.90
10472;DHT22;5283;48.876;8.962;2023-04-03T16:44:45;6.60;99.90
10472;DHT22;5283;48.876;8.962;2023-04-03T16:47:12;6.60;99.90
10472;DHT22;5283;48.876;8.962;2023-04-03T16:49:40;6.60;99.90
10472;DHT22;5283;48.876;8.962;2023-04-03T16:52:07;6.50;99.90
10472;DHT22;5283;48.876;8.962;2023-04-03T16:54:33;6.50;99.90
10472;DHT22;5283;48.876;8.962;2023-04-03T16:57:00;6.50;99.90
10472;DHT22;5283;48.876;8.962;2023-04-03T16:59:27;6.60;99.90
10472;DHT22;5283;48.876;8.962;2023-04-03T17:01:53;6.50;99.90
10472;DHT22;5283;48.876;8.962;2023-04-03T17:04:20;6.50;99.90
10472;DHT22;5283;48.876;8.962;2023-04-03T17:06:47;6.50;99.90
10472;DHT22;5283;48.876;8.962;2023-04-03T17:09:14;6.40;99.90
10472;DHT22;5283;48.876;8.962;2023-04-03T17:11:41;6.30;99.90
10472;DHT22;5283;48.876;8.962;2023-04-03T17:14:09;6.10;99.90
10472;DHT22;5283;48.876;8.962;2023-04-03T17:16:36;6.00;99.90
10472;DHT22;5283;48.876;8.962;2023-04-03T17:19:04;5.90;99.90
10472;DHT22;5283;48.876;8.962;2023-04-03T17:21:32;5.90;99.90
10472;DHT22;5283;48.876;8.962;2023-04-03T17:24:02;5.80;99.90
10472;DHT22;5283;48.876;8.962;2023-04-03T17:26:29;5.70;99.90
10472;DHT22;5283;48.876;8.962;2023-04-03T17:28:56;5.70;99.90
10472;DHT22;5283;48.876;8.962;2023-04-03T17:31:23;5.60;99.90
10472;DHT22;5283;48.876;8.962;2023-04-03T17:33:50;5.60;99.90
10472;DHT22;5283;48.876;8.962;2023-04-03T17:36:16;5.60;99.90
10472;DHT22;5283;48.876;8.962;2023-04-03T17:38:43;5.60;99.90